createdAt,value
2023-02-15T00:02:02.186Z,98559.78
2023-02-15T00:04:46.977Z,98560.63
2023-02-15T00:07:17.884Z,98558.69
2023-02-15T00:09:46.314Z,98555.34
2023-02-15T00:12:12.941Z,98552.19
2023-02-15T00:14:39.475Z,98541.84
2023-02-15T00:17:05.988Z,98542.22
2023-02-15T00:19:32.540Z,98549.13
2023-02-15T00:21:59.047Z,98546.84
2023-02-15T00:24:25.917Z,98546.59
2023-02-15T00:26:52.447Z,98540.31
2023-02-15T00:29:20.403Z,98550.97
2023-02-15T00:31:48.011Z,98548.19
2023-02-15T00:34:26.432Z,98540.75
2023-02-15T00:36:53.306Z,98545.44
2023-02-15T00:39:21.029Z,98551.53
2023-02-15T00:41:48.106Z,98549.06
2023-02-15T00:44:15.089Z,98547.03
2023-02-15T00:46:41.564Z,98552.56
2023-02-15T00:49:09.494Z,98550.84
2023-02-15T00:51:36.614Z,98557.94
2023-02-15T00:54:03.071Z,98555.72
2023-02-15T00:56:29.840Z,98545.84
2023-02-15T00:58:56.679Z,98540.44
2023-02-15T01:01:24.373Z,98539.72
2023-02-15T01:03:51.900Z,98541.09
2023-02-15T01:06:18.578Z,98540.56
2023-02-15T01:08:46.481Z,98543.16
2023-02-15T01:11:25.426Z,98552.31
2023-02-15T01:13:54.985Z,98544.25
2023-02-15T01:16:22.596Z,98548.38
2023-02-15T01:18:49.969Z,98542.31
2023-02-15T01:21:18.971Z,98549.75
2023-02-15T01:23:45.900Z,98542.34
2023-02-15T01:26:13.815Z,98539.75
2023-02-15T01:28:40.499Z,98540.25
2023-02-15T01:31:09.657Z,98546.38
2023-02-15T01:33:38.496Z,98544.00
2023-02-15T01:36:05.741Z,98531.34
2023-02-15T01:38:32.853Z,98532.88
2023-02-15T01:41:17.857Z,98532.38
2023-02-15T01:43:47.218Z,98529.13
2023-02-15T01:46:16.635Z,98533.75
2023-02-15T01:48:50.108Z,98528.91
2023-02-15T01:51:23.129Z,98530.97
2023-02-15T01:53:57.056Z,98530.72
2023-02-15T01:56:28.812Z,98535.16
2023-02-15T01:58:56.557Z,98535.75
2023-02-15T02:01:25.923Z,98534.06
2023-02-15T02:04:16.189Z,98523.91
2023-02-15T02:06:42.850Z,98520.59
2023-02-15T02:09:09.791Z,98514.97
2023-02-15T02:11:36.291Z,98517.38
2023-02-15T02:14:04.103Z,98517.47
2023-02-15T02:17:04.152Z,98513.59
2023-02-15T02:19:47.419Z,98515.41
2023-02-15T02:22:36.737Z,98518.88
2023-02-15T02:25:41.634Z,98516.53
2023-02-15T02:28:33.075Z,98518.50
2023-02-15T02:31:21.008Z,98516.13
2023-02-15T02:33:58.866Z,98519.31
2023-02-15T02:36:48.699Z,98518.06
2023-02-15T02:39:38.594Z,98521.53
2023-02-15T02:42:18.585Z,98521.25
2023-02-15T02:44:50.764Z,98517.34
2023-02-15T02:47:25.153Z,98518.44
2023-02-15T02:50:00.981Z,98521.25
2023-02-15T02:52:47.470Z,98521.56
2023-02-15T02:55:22.190Z,98516.38
2023-02-15T02:58:09.106Z,98517.75
2023-02-15T03:00:41.094Z,98519.06
2023-02-15T03:03:13.430Z,98511.75
2023-02-15T03:05:44.519Z,98509.75
2023-02-15T03:08:22.462Z,98519.00
2023-02-15T03:10:56.282Z,98517.19
2023-02-15T03:13:24.285Z,98507.00
2023-02-15T03:16:12.193Z,98513.16
2023-02-15T03:18:58.674Z,98506.06
2023-02-15T03:21:32.368Z,98512.34
2023-02-15T03:24:08.667Z,98510.38
2023-02-15T03:26:36.977Z,98513.25
2023-02-15T03:29:06.855Z,98505.84
2023-02-15T03:31:38.630Z,98501.88
2023-02-15T03:34:10.347Z,98493.63
2023-02-15T03:36:44.636Z,98496.16
2023-02-15T03:39:34.954Z,98499.44
2023-02-15T03:42:14.150Z,98508.03
2023-02-15T03:45:03.255Z,98506.88
2023-02-15T03:47:34.718Z,98506.91
2023-02-15T03:50:26.580Z,98516.34
2023-02-15T03:52:54.282Z,98509.25
2023-02-15T03:55:20.738Z,98518.50
2023-02-15T03:58:06.158Z,98506.06
2023-02-15T04:00:57.006Z,98506.91
2023-02-15T04:03:37.868Z,98502.81
2023-02-15T04:06:04.450Z,98504.72
2023-02-15T04:08:49.539Z,98492.31
2023-02-15T04:11:15.960Z,98492.41
2023-02-15T04:13:42.579Z,98490.41
2023-02-15T04:16:09.697Z,98489.00
2023-02-15T04:19:02.437Z,98487.16
2023-02-15T04:21:49.920Z,98484.69
2023-02-15T04:24:35.735Z,98482.63
2023-02-15T04:27:03.289Z,98484.56
2023-02-15T04:29:30.049Z,98478.06
2023-02-15T04:31:58.452Z,98475.69
2023-02-15T04:34:25.137Z,98476.25
2023-02-15T04:36:51.797Z,98474.41
2023-02-15T04:39:19.878Z,98477.09
2023-02-15T04:41:46.735Z,98478.78
2023-02-15T04:44:13.253Z,98478.97
2023-02-15T04:46:39.741Z,98485.16
2023-02-15T04:49:06.601Z,98489.72
2023-02-15T04:51:33.039Z,98487.81
2023-02-15T04:53:59.506Z,98483.19
2023-02-15T04:56:26.027Z,98477.66
2023-02-15T04:58:52.500Z,98476.91
2023-02-15T05:01:19.936Z,98486.00
2023-02-15T05:03:46.439Z,98477.63
2023-02-15T05:06:12.904Z,98477.19
2023-02-15T05:08:39.369Z,98477.06
2023-02-15T05:11:05.929Z,98481.19
2023-02-15T05:13:32.452Z,98478.00
2023-02-15T05:15:59.123Z,98479.97
2023-02-15T05:18:25.749Z,98476.47
2023-02-15T05:20:52.244Z,98481.31
2023-02-15T05:23:18.821Z,98482.22
2023-02-15T05:26:11.359Z,98479.28
2023-02-15T05:28:38.956Z,98479.41
2023-02-15T05:31:05.515Z,98482.81
2023-02-15T05:33:33.251Z,98483.78
2023-02-15T05:36:01.346Z,98479.25
2023-02-15T05:38:28.855Z,98485.84
2023-02-15T05:40:55.295Z,98482.13
2023-02-15T05:43:22.222Z,98478.47
2023-02-15T05:45:50.298Z,98482.31
2023-02-15T05:48:17.991Z,98484.22
2023-02-15T05:50:44.422Z,98485.91
2023-02-15T05:53:11.420Z,98485.69
2023-02-15T05:55:41.867Z,98485.00
2023-02-15T05:58:08.801Z,98491.19
2023-02-15T06:00:37.980Z,98490.41
2023-02-15T06:03:04.627Z,98493.41
2023-02-15T06:05:31.124Z,98493.66
2023-02-15T06:07:57.543Z,98499.19
2023-02-15T06:10:24.078Z,98490.81
2023-02-15T06:12:50.512Z,98490.84
2023-02-15T06:15:17.102Z,98508.69
2023-02-15T06:17:43.650Z,98500.06
2023-02-15T06:20:11.071Z,98494.66
2023-02-15T06:22:37.531Z,98491.06
2023-02-15T06:25:04.481Z,98488.59
2023-02-15T06:27:30.917Z,98491.56
2023-02-15T06:29:57.625Z,98496.34
2023-02-15T06:32:24.248Z,98494.63
2023-02-15T06:34:50.680Z,98498.44
2023-02-15T06:37:17.181Z,98493.41
2023-02-15T06:39:45.052Z,98491.03
2023-02-15T06:42:11.457Z,98491.84
2023-02-15T06:44:37.923Z,98494.59
2023-02-15T06:47:04.427Z,98503.13
2023-02-15T06:49:30.898Z,98497.97
2023-02-15T06:51:57.305Z,98507.69
2023-02-15T06:54:23.759Z,98502.19
2023-02-15T06:56:50.257Z,98500.00
2023-02-15T06:59:16.666Z,98499.41
2023-02-15T07:01:43.179Z,98500.31
2023-02-15T07:04:10.228Z,98501.38
2023-02-15T07:06:36.822Z,98495.88
2023-02-15T07:09:03.670Z,98501.41
2023-02-15T07:11:48.614Z,98500.19
2023-02-15T07:14:15.190Z,98501.63
2023-02-15T07:16:41.741Z,98508.13
2023-02-15T07:19:08.384Z,98510.91
2023-02-15T07:21:35.706Z,98508.63
2023-02-15T07:24:03.144Z,98508.97
2023-02-15T07:26:29.939Z,98506.75
2023-02-15T07:28:56.359Z,98515.72
2023-02-15T07:31:22.873Z,98513.53
2023-02-15T07:33:49.374Z,98515.81
2023-02-15T07:36:15.811Z,98505.81
2023-02-15T07:38:42.449Z,98509.38
2023-02-15T07:41:12.044Z,98518.00
2023-02-15T07:43:41.357Z,98522.59
2023-02-15T07:46:12.522Z,98522.91
2023-02-15T07:48:40.714Z,98520.34
2023-02-15T07:51:08.922Z,98516.59
2023-02-15T07:53:36.541Z,98521.28
2023-02-15T07:56:10.145Z,98519.50
2023-02-15T07:58:52.377Z,98519.94
2023-02-15T08:01:26.980Z,98522.91
2023-02-15T08:03:55.415Z,98517.25
2023-02-15T08:06:24.147Z,98520.31
2023-02-15T08:08:50.693Z,98523.13
2023-02-15T08:11:33.590Z,98519.38
2023-02-15T08:14:05.948Z,98521.72
2023-02-15T08:16:41.213Z,98513.53
2023-02-15T08:19:11.597Z,98500.63
2023-02-15T08:21:40.987Z,98510.84
2023-02-15T08:24:08.917Z,98504.78
2023-02-15T08:26:35.992Z,98506.88
2023-02-15T08:29:03.357Z,98498.41
2023-02-15T08:31:30.195Z,98497.72
2023-02-15T08:33:57.934Z,98494.22
2023-02-15T08:36:27.999Z,98493.88
2023-02-15T08:38:54.397Z,98489.16
2023-02-15T08:41:45.390Z,98490.25
2023-02-15T08:44:12.168Z,98491.78
2023-02-15T08:46:42.483Z,98488.28
2023-02-15T08:49:09.584Z,98490.53
2023-02-15T08:51:38.385Z,98495.03
2023-02-15T08:54:08.016Z,98490.97
2023-02-15T08:56:37.263Z,98497.41
2023-02-15T08:59:04.662Z,98490.72
2023-02-15T09:01:33.551Z,98474.53
2023-02-15T09:04:06.284Z,98487.09
2023-02-15T09:06:32.810Z,98482.59
2023-02-15T09:08:59.342Z,98483.03
2023-02-15T09:11:28.743Z,98479.81
2023-02-15T09:13:56.281Z,98478.53
2023-02-15T09:16:24.730Z,98476.31
2023-02-15T09:18:52.192Z,98471.25
2023-02-15T09:21:21.489Z,98476.69
2023-02-15T09:23:50.237Z,98472.34
2023-02-15T09:26:20.123Z,98463.84
2023-02-15T09:28:49.316Z,98462.59
2023-02-15T09:31:18.343Z,98466.53
2023-02-15T09:33:46.738Z,98467.91
2023-02-15T09:36:26.301Z,98461.84
2023-02-15T09:38:57.627Z,98457.91
2023-02-15T09:41:48.443Z,98453.63
2023-02-15T09:44:34.869Z,98459.19
2023-02-15T09:47:38.491Z,98449.38
2023-02-15T09:50:36.770Z,98449.16
2023-02-15T09:53:30.294Z,98455.41
2023-02-15T09:56:20.900Z,98443.59
2023-02-15T09:59:07.567Z,98444.06
2023-02-15T10:01:52.789Z,98440.88
2023-02-15T10:04:44.133Z,98438.50
2023-02-15T10:07:13.565Z,98437.63
2023-02-15T10:09:46.002Z,98447.25
2023-02-15T10:12:31.449Z,98444.38
2023-02-15T10:15:25.237Z,98451.00
2023-02-15T10:18:13.085Z,98438.59
2023-02-15T10:20:56.756Z,98444.66
2023-02-15T10:23:45.394Z,98440.91
2023-02-15T10:26:17.176Z,98444.31
2023-02-15T10:28:47.302Z,98436.81
2023-02-15T10:31:27.935Z,98437.16
2023-02-15T10:34:29.972Z,98431.06
2023-02-15T10:37:14.928Z,98428.81
2023-02-15T10:40:08.514Z,98423.19
2023-02-15T10:42:59.693Z,98427.22
2023-02-15T10:45:47.983Z,98424.59
2023-02-15T10:48:34.555Z,98417.44
2023-02-15T10:51:08.535Z,98415.97
2023-02-15T10:53:57.061Z,98414.28
2023-02-15T10:56:53.012Z,98417.47
2023-02-15T10:59:37.454Z,98414.81
2023-02-15T11:02:30.987Z,98411.97
2023-02-15T11:05:09.698Z,98410.63
2023-02-15T11:07:41.598Z,98411.47
2023-02-15T11:10:20.081Z,98402.44
2023-02-15T11:12:48.816Z,98401.09
2023-02-15T11:15:22.758Z,98394.88
2023-02-15T11:17:58.356Z,98398.31
2023-02-15T11:20:37.853Z,98395.84
2023-02-15T11:23:16.186Z,98399.31
2023-02-15T11:25:46.401Z,98394.94
2023-02-15T11:28:30.700Z,98391.41
2023-02-15T11:30:59.541Z,98395.19
2023-02-15T11:33:36.150Z,98391.75
2023-02-15T11:36:12.978Z,98394.97
2023-02-15T11:38:44.208Z,98389.28
2023-02-15T11:41:25.151Z,98389.59
2023-02-15T11:43:59.273Z,98392.84
2023-02-15T11:46:26.004Z,98386.59
2023-02-15T11:48:52.609Z,98380.09
2023-02-15T11:51:24.091Z,98383.47
2023-02-15T11:53:51.078Z,98385.97
2023-02-15T11:56:28.091Z,98385.03
2023-02-15T11:59:15.063Z,98381.94
2023-02-15T12:01:44.289Z,98380.16
2023-02-15T12:04:10.986Z,98381.47
2023-02-15T12:06:45.114Z,98373.66
2023-02-15T12:09:23.552Z,98363.38
2023-02-15T12:11:50.306Z,98367.88
2023-02-15T12:14:16.799Z,98370.81
2023-02-15T12:16:47.972Z,98370.41
2023-02-15T12:19:28.169Z,98369.38
2023-02-15T12:21:54.667Z,98364.53
2023-02-15T12:24:31.448Z,98360.16
2023-02-15T12:27:04.692Z,98357.28
2023-02-15T12:29:53.625Z,98357.56
2023-02-15T12:32:34.435Z,98357.38
2023-02-15T12:35:14.819Z,98362.91
2023-02-15T12:37:54.704Z,98359.63
2023-02-15T12:40:30.339Z,98357.91
2023-02-15T12:42:58.681Z,98352.41
2023-02-15T12:45:32.473Z,98348.69
2023-02-15T12:48:14.021Z,98340.88
2023-02-15T12:50:42.194Z,98337.09
2023-02-15T12:53:31.322Z,98322.50
2023-02-15T12:56:06.234Z,98328.25
2023-02-15T12:58:34.626Z,98325.28
2023-02-15T13:01:11.827Z,98321.31
2023-02-15T13:03:52.240Z,98317.94
2023-02-15T13:06:19.760Z,98314.41
2023-02-15T13:08:50.361Z,98315.19
2023-02-15T13:11:28.361Z,98303.34
2023-02-15T13:13:59.597Z,98307.56
2023-02-15T13:16:36.040Z,98309.31
2023-02-15T13:19:17.367Z,98295.16
2023-02-15T13:21:52.745Z,98290.94
2023-02-15T13:24:23.089Z,98287.09
2023-02-15T13:26:50.029Z,98288.03
2023-02-15T13:29:23.335Z,98279.41
2023-02-15T13:31:53.793Z,98277.84
2023-02-15T13:34:40.708Z,98269.69
2023-02-15T13:37:12.876Z,98267.44
2023-02-15T13:39:52.448Z,98266.19
2023-02-15T13:42:26.384Z,98260.44
2023-02-15T13:45:26.835Z,98258.81
2023-02-15T13:48:45.760Z,98264.22
2023-02-15T13:51:23.884Z,98269.22
2023-02-15T13:54:18.309Z,98260.78
2023-02-15T13:56:56.915Z,98260.63
2023-02-15T13:59:35.106Z,98257.34
2023-02-15T14:02:39.693Z,98256.97
2023-02-15T14:05:30.422Z,98260.50
2023-02-15T14:08:09.762Z,98252.06
2023-02-15T14:10:48.110Z,98249.63
2023-02-15T14:13:26.383Z,98255.84
2023-02-15T14:16:04.861Z,98255.03
2023-02-15T14:18:41.732Z,98250.41
2023-02-15T14:21:13.353Z,98250.78
2023-02-15T14:23:51.681Z,98251.63
2023-02-15T14:26:32.678Z,98249.44
2023-02-15T14:29:24.981Z,98255.09
2023-02-15T14:32:01.055Z,98245.97
2023-02-15T14:34:37.435Z,98249.28
2023-02-15T14:37:05.230Z,98258.84
2023-02-15T14:40:11.569Z,98248.16
2023-02-15T14:42:51.373Z,98260.66
2023-02-15T14:45:37.927Z,98256.28
2023-02-15T14:48:17.057Z,98250.38
2023-02-15T14:50:46.387Z,98265.00
2023-02-15T14:53:27.878Z,98266.63
2023-02-15T14:56:12.016Z,98253.03
2023-02-15T14:58:38.628Z,98261.31
2023-02-15T15:01:10.356Z,98258.91
2023-02-15T15:03:44.157Z,98262.94
2023-02-15T15:06:26.409Z,98259.84
2023-02-15T15:09:00.589Z,98259.09
2023-02-15T15:11:42.437Z,98255.91
2023-02-15T15:14:10.750Z,98253.31
2023-02-15T15:16:37.825Z,98254.84
2023-02-15T15:19:10.210Z,98256.16
2023-02-15T15:21:56.974Z,98251.84
2023-02-15T15:24:47.139Z,98252.88
2023-02-15T15:27:39.518Z,98256.56
2023-02-15T15:30:14.930Z,98258.03
2023-02-15T15:32:56.987Z,98260.25
2023-02-15T15:36:01.198Z,98260.00
2023-02-15T15:38:54.950Z,98264.06
2023-02-15T15:41:40.687Z,98265.72
2023-02-15T15:44:19.279Z,98264.50
2023-02-15T15:46:54.837Z,98267.13
2023-02-15T15:49:24.439Z,98261.09
2023-02-15T15:51:51.882Z,98263.09
2023-02-15T15:54:21.848Z,98257.16
2023-02-15T15:56:52.525Z,98267.53
2023-02-15T15:59:26.130Z,98258.94
2023-02-15T16:01:53.036Z,98263.31
2023-02-15T16:04:32.920Z,98260.88
2023-02-15T16:07:16.686Z,98262.31
2023-02-15T16:10:08.208Z,98269.25
2023-02-15T16:12:36.862Z,98261.59
2023-02-15T16:15:24.507Z,98267.72
2023-02-15T16:17:55.797Z,98265.66
2023-02-15T16:20:35.015Z,98262.59
2023-02-15T16:23:07.344Z,98266.97
2023-02-15T16:25:42.506Z,98266.03
2023-02-15T16:28:13.032Z,98272.69
2023-02-15T16:30:40.858Z,98268.91
2023-02-15T16:33:16.134Z,98272.03
2023-02-15T16:35:55.827Z,98274.75
2023-02-15T16:38:46.648Z,98274.81
2023-02-15T16:41:25.500Z,98281.94
2023-02-15T16:43:54.002Z,98282.97
2023-02-15T16:46:31.941Z,98277.59
2023-02-15T16:49:03.236Z,98287.25
2023-02-15T16:51:32.888Z,98290.97
2023-02-15T16:54:07.360Z,98297.97
2023-02-15T16:56:35.128Z,98295.41
2023-02-15T16:59:02.164Z,98293.25
2023-02-15T17:01:32.638Z,98300.81
2023-02-15T17:04:36.672Z,98303.66
2023-02-15T17:07:15.098Z,98296.97
2023-02-15T17:09:56.064Z,98305.81
2023-02-15T17:12:44.583Z,98304.72
2023-02-15T17:15:29.985Z,98307.25
2023-02-15T17:18:12.212Z,98307.91
2023-02-15T17:20:42.745Z,98310.94
2023-02-15T17:23:32.353Z,98306.22
2023-02-15T17:26:00.522Z,98305.22
2023-02-15T17:28:30.883Z,98310.72
2023-02-15T17:30:59.330Z,98308.84
2023-02-15T17:33:35.346Z,98314.13
2023-02-15T17:36:09.614Z,98313.38
2023-02-15T17:38:38.822Z,98311.75
2023-02-15T17:41:05.841Z,98312.06
2023-02-15T17:43:32.664Z,98311.09
2023-02-15T17:45:59.636Z,98313.06
2023-02-15T17:48:34.658Z,98307.53
2023-02-15T17:51:03.500Z,98311.25
2023-02-15T17:53:30.602Z,98310.03
2023-02-15T17:55:57.192Z,98312.47
2023-02-15T17:58:23.771Z,98313.31
2023-02-15T18:01:11.579Z,98314.69
2023-02-15T18:04:06.868Z,98312.88
2023-02-15T18:06:53.549Z,98316.19
2023-02-15T18:09:40.032Z,98308.81
2023-02-15T18:12:34.423Z,98317.38
2023-02-15T18:15:01.629Z,98313.53
2023-02-15T18:17:32.720Z,98309.91
2023-02-15T18:20:01.460Z,98313.09
2023-02-15T18:22:29.587Z,98314.94
2023-02-15T18:24:55.995Z,98318.16
2023-02-15T18:27:22.477Z,98321.66
2023-02-15T18:29:48.984Z,98323.66
2023-02-15T18:32:19.598Z,98327.03
2023-02-15T18:34:48.405Z,98321.91
2023-02-15T18:37:22.334Z,98314.09
2023-02-15T18:39:50.812Z,98315.28
2023-02-15T18:42:27.325Z,98310.25
2023-02-15T18:44:56.865Z,98316.94
2023-02-15T18:47:23.982Z,98314.94
2023-02-15T18:49:50.432Z,98312.25
2023-02-15T18:52:19.090Z,98306.28
2023-02-15T18:54:46.801Z,98309.94
2023-02-15T18:57:15.384Z,98306.94
2023-02-15T18:59:42.343Z,98300.78
2023-02-15T19:02:17.556Z,98303.59
2023-02-15T19:04:45.286Z,98298.63
2023-02-15T19:07:17.697Z,98298.28
2023-02-15T19:09:46.990Z,98297.44
2023-02-15T19:12:13.831Z,98298.28
2023-02-15T19:14:40.319Z,98292.59
2023-02-15T19:17:15.428Z,98292.75
2023-02-15T19:19:42.417Z,98298.78
2023-02-15T19:22:18.837Z,98293.63
2023-02-15T19:24:47.302Z,98289.09
2023-02-15T19:27:31.917Z,98297.94
2023-02-15T19:30:00.107Z,98293.94
2023-02-15T19:32:27.769Z,98291.44
2023-02-15T19:34:54.225Z,98286.78
2023-02-15T19:37:43.982Z,98288.59
2023-02-15T19:40:20.570Z,98286.44
2023-02-15T19:42:47.458Z,98287.28
2023-02-15T19:45:19.484Z,98286.78
2023-02-15T19:47:48.088Z,98279.44
2023-02-15T19:50:16.112Z,98282.75
2023-02-15T19:52:43.584Z,98280.06
2023-02-15T19:55:28.822Z,98283.59
2023-02-15T19:57:57.067Z,98272.94
2023-02-15T20:00:26.574Z,98279.44
2023-02-15T20:02:54.048Z,98280.59
2023-02-15T20:05:21.473Z,98282.28
2023-02-15T20:07:50.042Z,98281.59
2023-02-15T20:10:24.530Z,98282.63
2023-02-15T20:12:50.980Z,98272.44
2023-02-15T20:15:47.260Z,98277.78
2023-02-15T20:18:13.763Z,98276.44
2023-02-15T20:20:49.220Z,98276.94
2023-02-15T20:23:25.966Z,98278.28
2023-02-15T20:25:53.114Z,98281.25
2023-02-15T20:28:25.300Z,98277.91
2023-02-15T20:30:52.352Z,98279.06
2023-02-15T20:33:20.363Z,98284.72
2023-02-15T20:35:47.914Z,98274.41
2023-02-15T20:38:20.919Z,98276.75
2023-02-15T20:41:06.170Z,98274.06
2023-02-15T20:43:33.155Z,98273.06
2023-02-15T20:46:00.382Z,98269.53
2023-02-15T20:48:27.539Z,98275.41
2023-02-15T20:50:55.463Z,98268.25
2023-02-15T20:53:22.032Z,98274.44
2023-02-15T20:55:48.474Z,98272.44
2023-02-15T20:58:36.026Z,98280.59
2023-02-15T21:01:02.920Z,98271.78
2023-02-15T21:03:31.432Z,98278.59
2023-02-15T21:05:59.163Z,98276.38
2023-02-15T21:08:26.577Z,98277.91
2023-02-15T21:10:54.390Z,98271.41
2023-02-15T21:13:21.171Z,98273.06
2023-02-15T21:15:48.905Z,98271.25
2023-02-15T21:18:24.477Z,98270.59
2023-02-15T21:20:54.122Z,98264.41
2023-02-15T21:23:24.222Z,98261.88
2023-02-15T21:25:50.695Z,98264.97
2023-02-15T21:28:20.455Z,98255.25
2023-02-15T21:30:48.565Z,98258.88
2023-02-15T21:33:15.495Z,98263.56
2023-02-15T21:35:43.516Z,98268.09
2023-02-15T21:38:15.734Z,98259.84
2023-02-15T21:40:42.602Z,98262.34
2023-02-15T21:43:45.957Z,98255.97
2023-02-15T21:46:36.536Z,98257.31
2023-02-15T21:49:04.256Z,98260.00
2023-02-15T21:51:49.994Z,98257.16
2023-02-15T21:54:19.529Z,98258.66
2023-02-15T21:56:48.598Z,98256.72
2023-02-15T21:59:17.020Z,98255.94
2023-02-15T22:01:49.910Z,98255.78
2023-02-15T22:04:25.710Z,98251.94
2023-02-15T22:06:52.303Z,98254.09
2023-02-15T22:09:27.207Z,98258.63
2023-02-15T22:11:54.571Z,98246.78
2023-02-15T22:14:40.555Z,98244.97
2023-02-15T22:17:24.961Z,98244.44
2023-02-15T22:19:52.362Z,98244.09
2023-02-15T22:22:18.863Z,98240.09
2023-02-15T22:24:45.847Z,98242.63
2023-02-15T22:27:21.186Z,98235.13
2023-02-15T22:29:49.078Z,98240.94
2023-02-15T22:32:18.232Z,98240.78
2023-02-15T22:34:44.991Z,98243.44
2023-02-15T22:37:11.566Z,98248.91
2023-02-15T22:39:38.529Z,98252.19
2023-02-15T22:42:05.611Z,98241.53
2023-02-15T22:44:35.293Z,98246.59
2023-02-15T22:47:01.732Z,98240.59
2023-02-15T22:49:28.374Z,98250.28
2023-02-15T22:51:54.852Z,98250.63
2023-02-15T22:54:21.934Z,98255.13
2023-02-15T22:56:53.116Z,98257.94
2023-02-15T22:59:24.431Z,98255.97
2023-02-15T23:01:51.000Z,98262.94
2023-02-15T23:04:20.913Z,98263.78
2023-02-15T23:06:47.970Z,98264.94
2023-02-15T23:09:15.442Z,98263.09
2023-02-15T23:11:42.479Z,98265.13
2023-02-15T23:14:27.344Z,98270.84
2023-02-15T23:16:54.198Z,98264.13
2023-02-15T23:19:20.869Z,98262.97
2023-02-15T23:21:47.404Z,98268.19
2023-02-15T23:24:21.136Z,98271.03
2023-02-15T23:26:48.632Z,98265.69
2023-02-15T23:29:24.153Z,98270.94
2023-02-15T23:31:53.609Z,98273.63
2023-02-15T23:34:24.325Z,98275.53
2023-02-15T23:36:50.900Z,98274.34
2023-02-15T23:39:39.567Z,98271.97
2023-02-15T23:42:21.145Z,98269.25
2023-02-15T23:44:48.709Z,98274.88
2023-02-15T23:47:21.131Z,98274.75
2023-02-15T23:49:47.824Z,98270.53
2023-02-15T23:52:14.270Z,98270.34
2023-02-15T23:54:40.729Z,98275.31
2023-02-15T23:57:12.342Z,98270.28
2023-02-15T23:59:44.172Z,98270.91
